Time;durP1;ratioP1;P1;durP2;ratioP2;P2;SDS_P1;SDS_P2;PMS_P1;PMS_P2;Temp;Humidity;BMP_temperature;BMP_pressure;BME280_temperature;BME280_humidity;BME280_pressure;Samples;Min_cycle;Max_cycle;Signal;HPM_P1;HPM_P2
2023/05/09 00:00:19;;;;;;;;;;;7.60;1.00;;;;;;5138022;28;20110;-63
2023/05/09 00:02:50;;;;;;;;;;;7.50;1.00;;;;;;5149306;28;19914;-64
2023/05/09 00:05:25;;;;;;;;;;;7.50;1.00;;;;;;5164724;28;19925;-64
2023/05/09 00:08:00;;;;;;;;;;;7.50;1.00;;;;;;5159501;28;19917;-64
2023/05/09 00:10:36;;;;;;;;;;;7.50;1.00;;;;;;5143162;28;19917;-64
2023/05/09 00:13:11;;;;;;;;;;;7.40;1.00;;;;;;5142574;28;19932;-63
2023/05/09 00:15:43;;;;;;;;;;;7.40;1.00;;;;;;5174920;28;19910;-64
2023/05/09 00:18:14;;;;;;;;;;;7.40;1.00;;;;;;5142839;28;19913;-63
2023/05/09 00:20:46;;;;;;;;;;;7.40;1.00;;;;;;5158259;28;19910;-64
2023/05/09 00:23:23;;;;;;;;;;;7.30;1.00;;;;;;5142725;28;19910;-65
2023/05/09 00:25:54;;;;;;;;;;;7.30;1.00;;;;;;5143055;28;19910;-62
2023/05/09 00:28:27;;;;;;;;;;;7.30;1.00;;;;;;5159503;28;19910;-62
2023/05/09 00:30:58;;;;;;;;;;;7.30;1.00;;;;;;5143000;28;19917;-62
2023/05/09 00:33:30;;;;;;;;;;;7.30;1.00;;;;;;5159102;28;20009;-62
2023/05/09 00:36:06;;;;;;;;;;;7.30;1.00;;;;;;5175052;28;19910;-63
2023/05/09 00:38:40;;;;;;;;;;;7.30;1.00;;;;;;5142936;28;19974;-62
2023/05/09 00:41:14;;;;;;;;;;;7.30;1.00;;;;;;5159239;28;19910;-63
2023/05/09 00:43:47;;;;;;;;;;;7.30;1.00;;;;;;5174596;28;20228;-63
2023/05/09 00:46:20;;;;;;;;;;;7.30;1.00;;;;;;5126958;28;19910;-63
2023/05/09 00:48:51;;;;;;;;;;;7.20;1.00;;;;;;5174450;28;20123;-62
2023/05/09 00:51:23;;;;;;;;;;;7.20;1.00;;;;;;5174728;28;19921;-63
2023/05/09 00:53:57;;;;;;;;;;;7.20;1.00;;;;;;5174464;28;19910;-63
2023/05/09 00:59:56;;;;;;;;;;;7.20;1.00;;;;;;5157772;28;19910;-63
2023/05/09 01:02:31;;;;;;;;;;;7.20;1.00;;;;;;5269144;23;19933;-71
2023/05/09 01:05:02;;;;;;;;;;;7.20;1.00;;;;;;5134609;28;19920;-72
2023/05/09 01:07:45;;;;;;;;;;;7.20;1.00;;;;;;5111495;28;19929;-71
2023/05/09 01:10:45;;;;;;;;;;;7.20;1.00;;;;;;5132925;28;19922;-69
2023/05/09 01:13:31;;;;;;;;;;;7.20;1.00;;;;;;5129501;28;20339;-71
2023/05/09 01:16:08;;;;;;;;;;;7.20;1.00;;;;;;5129206;28;19909;-71
2023/05/09 01:18:53;;;;;;;;;;;7.20;1.00;;;;;;5139043;28;19927;-70
2023/05/09 01:21:29;;;;;;;;;;;7.10;1.00;;;;;;5141342;28;19918;-69
2023/05/09 01:24:50;;;;;;;;;;;7.10;1.00;;;;;;5176554;28;19925;-71
2023/05/09 01:27:43;;;;;;;;;;;7.10;1.00;;;;;;5116677;28;19921;-72
2023/05/09 01:30:15;;;;;;;;;;;7.10;1.00;;;;;;5127738;28;20130;-68
2023/05/09 01:32:52;;;;;;;;;;;7.10;1.00;;;;;;5118390;28;19918;-68
2023/05/09 01:35:30;;;;;;;;;;;7.10;1.00;;;;;;5167305;28;19917;-68
2023/05/09 01:38:06;;;;;;;;;;;7.10;1.00;;;;;;5162935;28;19944;-76
2023/05/09 01:40:42;;;;;;;;;;;7.00;1.00;;;;;;5108128;28;19918;-72
2023/05/09 01:43:15;;;;;;;;;;;7.10;1.00;;;;;;5111852;28;19918;-71
2023/05/09 01:45:48;;;;;;;;;;;7.10;1.00;;;;;;5107945;28;19918;-72
2023/05/09 01:48:21;;;;;;;;;;;7.10;1.00;;;;;;5126619;28;19918;-69
2023/05/09 01:50:53;;;;;;;;;;;7.10;1.00;;;;;;5139605;28;19922;-70
2023/05/09 01:53:29;;;;;;;;;;;7.00;1.00;;;;;;5175840;28;19924;-70
2023/05/09 01:56:03;;;;;;;;;;;7.00;1.00;;;;;;5158855;28;19924;-69
2023/05/09 01:58:41;;;;;;;;;;;7.00;1.00;;;;;;5136274;28;19922;-70
2023/05/09 02:01:16;;;;;;;;;;;7.00;1.00;;;;;;5118645;28;19921;-74
2023/05/09 02:03:51;;;;;;;;;;;6.90;1.00;;;;;;5141774;28;19938;-75
2023/05/09 02:06:23;;;;;;;;;;;6.90;1.00;;;;;;5091408;28;19949;-68
2023/05/09 02:08:55;;;;;;;;;;;6.80;1.00;;;;;;5091217;28;19918;-70
2023/05/09 02:11:32;;;;;;;;;;;6.70;1.00;;;;;;5101113;28;19944;-69
2023/05/09 02:14:06;;;;;;;;;;;6.70;1.00;;;;;;5098439;29;19928;-69
2023/05/09 02:16:41;;;;;;;;;;;6.70;1.00;;;;;;5118043;28;20178;-69
2023/05/09 02:19:16;;;;;;;;;;;6.60;1.00;;;;;;5088283;29;20135;-74
2023/05/09 02:21:47;;;;;;;;;;;6.60;1.00;;;;;;5123423;28;19910;-70
2023/05/09 02:24:24;;;;;;;;;;;6.60;18.30;;;;;;5125363;28;19918;-75
2023/05/09 02:26:57;;;;;;;;;;;6.60;1.00;;;;;;5138648;28;19918;-70
2023/05/09 02:29:39;;;;;;;;;;;6.60;1.00;;;;;;5108609;28;20122;-69
2023/05/09 02:32:15;;;;;;;;;;;6.60;1.00;;;;;;5090372;28;19914;-70
2023/05/09 02:34:51;;;;;;;;;;;6.60;1.00;;;;;;5075319;28;19910;-73
2023/05/09 02:37:26;;;;;;;;;;;6.60;1.00;;;;;;5123030;28;19941;-70
2023/05/09 02:40:04;;;;;;;;;;;6.50;1.00;;;;;;5105120;28;19928;-72
2023/05/09 02:42:40;;;;;;;;;;;6.50;1.00;;;;;;5091591;28;19928;-72
2023/05/09 02:45:12;;;;;;;;;;;6.50;1.00;;;;;;5087789;28;19928;-72
2023/05/09 02:47:43;;;;;;;;;;;6.50;1.00;;;;;;5114637;28;19932;-71
2023/05/09 02:50:20;;;;;;;;;;;6.40;1.00;;;;;;5114144;28;19924;-62
2023/05/09 02:53:12;;;;;;;;;;;6.40;1.00;;;;;;5107039;28;20310;-67
2023/05/09 02:55:43;;;;;;;;;;;6.40;1.00;;;;;;5143991;28;19917;-69
2023/05/09 02:58:15;;;;;;;;;;;6.20;1.00;;;;;;5115578;28;19926;-71
2023/05/09 03:00:52;;;;;;;;;;;6.20;28.90;;;;;;5120480;28;20481;-71
2023/05/09 03:03:26;;;;;;;;;;;6.20;32.40;;;;;;5142952;28;19921;-72
2023/05/09 03:06:00;;;;;;;;;;;6.10;73.60;;;;;;5087197;28;20122;-69
2023/05/09 03:08:31;;;;;;;;;;;6.10;99.90;;;;;;5142394;28;19917;-73
2023/05/09 03:11:03;;;;;;;;;;;6.00;99.90;;;;;;5125572;28;19917;-74
2023/05/09 03:13:37;;;;;;;;;;;6.00;99.90;;;;;;5145055;28;19918;-70
2023/05/09 03:16:12;;;;;;;;;;;6.00;99.90;;;;;;5140039;28;19918;-72
2023/05/09 03:18:43;;;;;;;;;;;6.10;99.90;;;;;;5125398;28;20235;-69
2023/05/09 03:21:17;;;;;;;;;;;6.10;99.90;;;;;;5145161;28;20403;-71
2023/05/09 03:23:49;;;;;;;;;;;6.10;99.90;;;;;;5146683;28;20332;-67
2023/05/09 03:26:21;;;;;;;;;;;6.10;86.80;;;;;;5146001;28;19909;-72
2023/05/09 03:28:54;;;;;;;;;;;6.00;66.70;;;;;;5161350;28;19928;-73
2023/05/09 03:31:28;;;;;;;;;;;6.00;66.90;;;;;;5150104;28;19924;-70
2023/05/09 03:34:05;;;;;;;;;;;6.00;93.60;;;;;;5160174;28;20394;-71
2023/05/09 03:36:39;;;;;;;;;;;6.00;99.90;;;;;;5141455;28;19910;-69
2023/05/09 03:39:13;;;;;;;;;;;6.00;99.90;;;;;;5144987;28;20395;-71
2023/05/09 03:41:52;;;;;;;;;;;6.00;99.90;;;;;;5146173;28;19918;-69
2023/05/09 03:44:24;;;;;;;;;;;6.00;99.90;;;;;;5130428;28;19909;-69
2023/05/09 03:46:58;;;;;;;;;;;6.20;99.90;;;;;;5125902;28;19924;-70
2023/05/09 03:49:29;;;;;;;;;;;6.30;99.90;;;;;;5129266;28;19918;-66
2023/05/09 03:52:02;;;;;;;;;;;6.30;99.90;;;;;;5162877;28;19910;-71
2023/05/09 03:54:35;;;;;;;;;;;6.40;99.90;;;;;;5130079;28;19918;-72
2023/05/09 03:57:14;;;;;;;;;;;6.50;99.90;;;;;;5148225;28;19921;-74
2023/05/09 03:59:48;;;;;;;;;;;6.50;86.30;;;;;;5128914;28;19910;-72
2023/05/09 04:02:23;;;;;;;;;;;6.60;90.90;;;;;;5125181;28;20389;-72
2023/05/09 04:04:57;;;;;;;;;;;6.60;73.70;;;;;;5135704;28;19920;-69
2023/05/09 04:07:28;;;;;;;;;;;6.70;76.90;;;;;;5130189;28;19917;-72
2023/05/09 04:10:00;;;;;;;;;;;6.70;58.30;;;;;;5150748;28;19928;-69
2023/05/09 04:12:31;;;;;;;;;;;6.80;28.50;;;;;;5149104;28;20234;-71
2023/05/09 04:15:05;;;;;;;;;;;6.80;10.30;;;;;;5154216;28;19924;-74
2023/05/09 04:17:40;;;;;;;;;;;6.90;6.30;;;;;;5129130;28;20107;-71
2023/05/09 04:20:15;;;;;;;;;;;7.00;1.00;;;;;;5145451;28;19928;-70
2023/05/09 04:22:46;;;;;;;;;;;7.00;1.00;;;;;;5130031;28;20375;-71
2023/05/09 04:25:21;;;;;;;;;;;7.10;1.00;;;;;;5138592;28;20119;-74
2023/05/09 04:27:55;;;;;;;;;;;7.30;1.00;;;;;;5163638;28;19957;-69
2023/05/09 04:30:26;;;;;;;;;;;7.60;1.00;;;;;;5148801;28;19913;-71
2023/05/09 04:33:03;;;;;;;;;;;7.70;1.00;;;;;;5162827;28;19937;-74
2023/05/09 04:35:37;;;;;;;;;;;7.80;1.00;;;;;;5128768;28;19952;-69
2023/05/09 04:38:08;;;;;;;;;;;7.80;1.00;;;;;;5132451;28;20137;-70
2023/05/09 04:40:40;;;;;;;;;;;7.80;1.00;;;;;;5134866;28;19922;-70
2023/05/09 04:43:14;;;;;;;;;;;7.80;1.00;;;;;;5156279;28;20288;-69
2023/05/09 04:45:46;;;;;;;;;;;7.80;1.00;;;;;;5126854;28;19920;-71
2023/05/09 04:48:21;;;;;;;;;;;7.90;1.00;;;;;;5132064;28;20090;-72
2023/05/09 04:50:53;;;;;;;;;;;8.00;1.00;;;;;;5127873;28;19925;-70
2023/05/09 04:53:25;;;;;;;;;;;8.10;1.00;;;;;;5137046;28;19910;-68
2023/05/09 04:55:59;;;;;;;;;;;8.30;1.00;;;;;;5118652;28;19948;-70
2023/05/09 04:58:37;;;;;;;;;;;8.50;1.00;;;;;;5128100;28;19933;-68
2023/05/09 05:01:13;;;;;;;;;;;8.70;1.00;;;;;;5125217;28;19921;-68
2023/05/09 05:03:45;;;;;;;;;;;8.80;1.00;;;;;;5131558;28;19917;-71
2023/05/09 05:06:16;;;;;;;;;;;9.00;1.00;;;;;;5104877;28;19956;-73
2023/05/09 05:08:53;;;;;;;;;;;9.10;1.00;;;;;;5124944;28;19922;-71
2023/05/09 05:11:25;;;;;;;;;;;9.10;1.00;;;;;;5137922;28;19921;-71
2023/05/09 05:13:59;;;;;;;;;;;9.20;1.00;;;;;;5133041;28;20201;-67
2023/05/09 05:16:33;;;;;;;;;;;9.50;1.00;;;;;;5118715;28;19910;-74
2023/05/09 05:19:07;;;;;;;;;;;9.80;1.00;;;;;;5137977;28;19928;-69
2023/05/09 05:21:41;;;;;;;;;;;10.20;1.00;;;;;;5129529;28;20118;-70
2023/05/09 05:24:13;;;;;;;;;;;10.70;1.00;;;;;;5144861;28;19917;-71
2023/05/09 05:26:47;;;;;;;;;;;11.10;1.00;;;;;;5136738;28;20414;-70
2023/05/09 05:29:21;;;;;;;;;;;11.40;1.00;;;;;;5132222;28;19921;-71
2023/05/09 05:31:52;;;;;;;;;;;11.60;1.00;;;;;;5122226;28;20496;-71
2023/05/09 05:34:24;;;;;;;;;;;11.80;1.00;;;;;;5146528;28;19948;-74
2023/05/09 05:36:55;;;;;;;;;;;11.80;1.00;;;;;;5140849;28;19918;-70
2023/05/09 05:39:32;;;;;;;;;;;11.90;1.00;;;;;;5139355;28;19928;-72
2023/05/09 05:42:04;;;;;;;;;;;12.00;1.00;;;;;;5144049;28;19921;-73
2023/05/09 05:44:37;;;;;;;;;;;12.20;1.00;;;;;;5149820;28;19917;-70
2023/05/09 05:47:09;;;;;;;;;;;12.40;1.00;;;;;;5124491;28;20029;-68
2023/05/09 05:49:44;;;;;;;;;;;12.50;1.00;;;;;;5127652;28;19918;-72
2023/05/09 05:52:16;;;;;;;;;;;12.60;1.00;;;;;;5138163;28;19924;-70
2023/05/09 05:54:48;;;;;;;;;;;12.80;1.00;;;;;;5143446;28;19916;-69
2023/05/09 05:57:22;;;;;;;;;;;12.90;1.00;;;;;;5142748;28;19916;-72
2023/05/09 05:59:56;;;;;;;;;;;12.90;1.00;;;;;;5139076;28;20241;-71
2023/05/09 06:02:30;;;;;;;;;;;12.70;1.00;;;;;;5139055;28;20252;-71
2023/05/09 06:05:07;;;;;;;;;;;12.60;1.00;;;;;;5082005;28;19993;-68
2023/05/09 06:07:40;;;;;;;;;;;12.90;1.00;;;;;;5132013;28;19929;-72
2023/05/09 06:10:16;;;;;;;;;;;13.20;1.00;;;;;;5146993;28;19924;-70
2023/05/09 06:12:47;;;;;;;;;;;13.40;1.00;;;;;;5118939;28;19924;-71
2023/05/09 06:15:24;;;;;;;;;;;13.80;1.00;;;;;;5115054;28;19909;-71
2023/05/09 06:17:55;;;;;;;;;;;14.00;1.00;;;;;;5144279;28;19924;-67
2023/05/09 06:20:28;;;;;;;;;;;14.00;1.00;;;;;;5127912;28;19924;-67
2023/05/09 06:23:05;;;;;;;;;;;14.00;1.00;;;;;;5143623;28;19910;-71
2023/05/09 06:25:44;;;;;;;;;;;13.80;1.00;;;;;;5144027;28;19910;-70
2023/05/09 06:28:18;;;;;;;;;;;13.50;1.00;;;;;;5131287;28;19921;-71
2023/05/09 06:30:50;;;;;;;;;;;13.60;1.00;;;;;;5112265;28;19917;-74
2023/05/09 06:33:26;;;;;;;;;;;13.60;1.00;;;;;;5141878;28;19921;-71
2023/05/09 06:36:00;;;;;;;;;;;13.80;1.00;;;;;;5133219;28;20537;-73
2023/05/09 06:38:32;;;;;;;;;;;13.90;1.00;;;;;;5124679;28;19921;-72
2023/05/09 06:41:09;;;;;;;;;;;14.00;1.00;;;;;;5140470;28;19925;-70
2023/05/09 06:43:48;;;;;;;;;;;14.10;1.00;;;;;;5129772;28;19913;-70
2023/05/09 06:46:25;;;;;;;;;;;14.20;1.00;;;;;;5145293;28;19921;-73
2023/05/09 06:49:01;;;;;;;;;;;14.30;1.00;;;;;;5132141;28;19952;-69
2023/05/09 06:51:37;;;;;;;;;;;14.30;1.00;;;;;;5117668;28;20246;-71
2023/05/09 06:54:10;;;;;;;;;;;14.50;1.00;;;;;;5126739;28;20271;-71
2023/05/09 06:56:41;;;;;;;;;;;14.70;1.00;;;;;;5125772;28;20313;-67
2023/05/09 06:59:15;;;;;;;;;;;14.60;1.00;;;;;;5104458;28;20347;-70
2023/05/09 07:01:49;;;;;;;;;;;14.30;1.00;;;;;;5113627;28;19921;-68
2023/05/09 07:04:20;;;;;;;;;;;14.20;1.00;;;;;;5097861;28;19917;-68
2023/05/09 07:06:53;;;;;;;;;;;14.30;1.00;;;;;;5093335;28;19928;-71
2023/05/09 07:09:27;;;;;;;;;;;14.70;1.00;;;;;;5158717;28;19916;-71
2023/05/09 07:12:00;;;;;;;;;;;14.90;1.00;;;;;;5158825;28;19917;-69
2023/05/09 07:14:31;;;;;;;;;;;14.90;1.00;;;;;;5126979;28;19952;-72
2023/05/09 07:17:07;;;;;;;;;;;15.00;1.00;;;;;;5143257;28;19917;-73
2023/05/09 07:19:41;;;;;;;;;;;14.90;1.00;;;;;;5148570;28;20151;-68
2023/05/09 07:22:12;;;;;;;;;;;15.30;1.00;;;;;;5129701;28;19910;-70
2023/05/09 07:24:45;;;;;;;;;;;15.70;1.00;;;;;;5145898;28;20118;-72
2023/05/09 07:27:16;;;;;;;;;;;15.90;1.00;;;;;;5130504;28;19931;-67
2023/05/09 07:29:52;;;;;;;;;;;15.90;1.00;;;;;;5146119;28;19918;-70
2023/05/09 07:32:27;;;;;;;;;;;16.00;1.00;;;;;;5111442;28;19943;-68
2023/05/09 07:34:58;;;;;;;;;;;16.00;1.00;;;;;;5146730;28;19965;-72
2023/05/09 07:37:33;;;;;;;;;;;16.20;1.00;;;;;;5146970;28;19932;-72
2023/05/09 07:40:05;;;;;;;;;;;16.30;1.00;;;;;;5130055;28;19910;-73
2023/05/09 07:42:39;;;;;;;;;;;16.20;1.00;;;;;;5121237;28;19918;-70
2023/05/09 07:45:19;;;;;;;;;;;16.40;1.00;;;;;;5123011;28;20532;-70
2023/05/09 07:47:50;;;;;;;;;;;16.90;1.00;;;;;;5113810;28;19909;-67
2023/05/09 07:50:22;;;;;;;;;;;17.00;1.00;;;;;;5113813;28;19928;-74
2023/05/09 07:52:56;;;;;;;;;;;17.10;1.00;;;;;;5114313;28;19918;-70
2023/05/09 07:55:30;;;;;;;;;;;16.90;1.00;;;;;;5129675;28;19917;-66
2023/05/09 07:58:02;;;;;;;;;;;17.30;1.00;;;;;;5141196;28;19917;-72
2023/05/09 08:00:35;;;;;;;;;;;17.40;1.00;;;;;;5126527;28;20423;-67
2023/05/09 08:03:07;;;;;;;;;;;17.40;1.00;;;;;;5109712;28;20102;-71
2023/05/09 08:05:38;;;;;;;;;;;17.30;1.00;;;;;;5127322;28;20539;-73
2023/05/09 08:08:09;;;;;;;;;;;17.20;1.00;;;;;;5128772;28;19909;-71
2023/05/09 08:10:49;;;;;;;;;;;16.80;1.00;;;;;;5151183;28;19917;-71
2023/05/09 08:13:23;;;;;;;;;;;16.80;1.00;;;;;;5130827;28;19910;-67
2023/05/09 08:16:02;;;;;;;;;;;17.20;1.00;;;;;;5100080;28;20229;-69
2023/05/09 08:18:39;;;;;;;;;;;17.40;1.00;;;;;;5114181;28;19928;-74
2023/05/09 08:21:12;;;;;;;;;;;17.60;1.00;;;;;;5130104;28;19933;-70
2023/05/09 08:23:48;;;;;;;;;;;17.60;1.00;;;;;;5134335;28;19917;-72
2023/05/09 08:26:21;;;;;;;;;;;17.40;1.00;;;;;;5113636;28;19923;-68
2023/05/09 08:28:53;;;;;;;;;;;17.40;1.00;;;;;;5146654;28;20217;-69
2023/05/09 08:31:25;;;;;;;;;;;17.30;1.00;;;;;;5126691;28;19925;-72
2023/05/09 08:33:57;;;;;;;;;;;17.40;1.00;;;;;;5129907;28;19928;-70
2023/05/09 08:36:31;;;;;;;;;;;17.50;1.00;;;;;;5150355;28;20049;-66
2023/05/09 08:39:02;;;;;;;;;;;17.20;1.00;;;;;;5128513;28;20356;-72
2023/05/09 08:41:36;;;;;;;;;;;17.30;1.00;;;;;;5128394;28;19916;-70
2023/05/09 08:44:10;;;;;;;;;;;17.00;1.00;;;;;;5149217;28;20281;-71
2023/05/09 08:46:45;;;;;;;;;;;16.60;1.00;;;;;;5127197;28;19917;-70
2023/05/09 08:49:21;;;;;;;;;;;16.50;1.00;;;;;;5117348;28;19917;-71
2023/05/09 08:51:57;;;;;;;;;;;16.50;1.00;;;;;;5146192;28;19944;-69
2023/05/09 08:54:34;;;;;;;;;;;16.40;1.00;;;;;;5114385;28;19917;-69
2023/05/09 08:57:05;;;;;;;;;;;16.60;1.00;;;;;;5094300;28;19922;-69
2023/05/09 08:59:44;;;;;;;;;;;16.90;1.00;;;;;;5141437;28;19916;-70
2023/05/09 09:02:15;;;;;;;;;;;17.10;1.00;;;;;;5106553;28;20020;-72
2023/05/09 09:04:49;;;;;;;;;;;17.50;1.00;;;;;;5118703;28;19914;-71
2023/05/09 09:07:24;;;;;;;;;;;17.70;1.00;;;;;;5144592;28;19945;-68
2023/05/09 09:09:59;;;;;;;;;;;17.90;1.00;;;;;;5145912;28;19917;-71
2023/05/09 09:12:32;;;;;;;;;;;18.20;1.00;;;;;;5144223;28;19918;-71
2023/05/09 09:15:05;;;;;;;;;;;18.90;1.00;;;;;;5104808;28;19918;-74
2023/05/09 09:17:42;;;;;;;;;;;19.30;1.00;;;;;;5110181;28;19910;-68
2023/05/09 09:20:17;;;;;;;;;;;18.60;1.00;;;;;;5143777;28;19924;-72
2023/05/09 09:22:51;;;;;;;;;;;18.40;1.00;;;;;;5112975;28;19909;-71
2023/05/09 09:25:25;;;;;;;;;;;18.30;1.00;;;;;;5121416;28;19922;-66
2023/05/09 09:27:57;;;;;;;;;;;18.20;1.00;;;;;;5128052;28;20268;-70
2023/05/09 09:30:31;;;;;;;;;;;18.00;1.00;;;;;;5158293;28;20008;-71
2023/05/09 09:33:06;;;;;;;;;;;17.80;1.00;;;;;;5112430;28;19921;-72
2023/05/09 09:35:42;;;;;;;;;;;17.60;1.00;;;;;;5111731;28;19982;-71
2023/05/09 09:38:17;;;;;;;;;;;17.70;1.00;;;;;;5143997;28;20257;-70
2023/05/09 09:40:48;;;;;;;;;;;17.90;1.00;;;;;;5109679;28;19918;-71
2023/05/09 09:43:27;;;;;;;;;;;18.00;1.00;;;;;;5140297;28;19924;-70
2023/05/09 09:46:02;;;;;;;;;;;18.60;1.00;;;;;;5137365;28;19918;-71
2023/05/09 09:48:38;;;;;;;;;;;19.20;1.00;;;;;;5125978;28;19917;-70
2023/05/09 09:51:10;;;;;;;;;;;19.30;1.00;;;;;;5111042;28;19923;-67
2023/05/09 09:53:42;;;;;;;;;;;19.30;1.00;;;;;;5111523;28;19923;-72
2023/05/09 09:56:16;;;;;;;;;;;19.90;1.00;;;;;;5110106;28;19924;-69
2023/05/09 09:59:04;;;;;;;;;;;20.30;1.00;;;;;;5122826;28;19932;-74
2023/05/09 10:01:53;;;;;;;;;;;20.10;1.00;;;;;;5123033;28;19914;-73
2023/05/09 10:04:29;;;;;;;;;;;20.70;1.00;;;;;;5115544;28;19914;-72
2023/05/09 10:07:03;;;;;;;;;;;20.10;1.00;;;;;;5118509;28;19922;-71
2023/05/09 10:09:39;;;;;;;;;;;20.50;1.00;;;;;;5095684;28;20119;-71
2023/05/09 10:12:13;;;;;;;;;;;20.10;1.00;;;;;;5123164;28;19929;-69
2023/05/09 10:14:44;;;;;;;;;;;19.60;1.00;;;;;;5133510;28;19924;-73
2023/05/09 10:17:20;;;;;;;;;;;19.00;1.00;;;;;;5128595;28;19922;-70
2023/05/09 10:19:52;;;;;;;;;;;19.00;1.00;;;;;;5104369;28;19918;-67
2023/05/09 10:22:26;;;;;;;;;;;18.90;1.00;;;;;;5103658;28;20194;-68
2023/05/09 10:25:13;;;;;;;;;;;18.80;1.00;;;;;;5106340;29;19918;-72
2023/05/09 10:27:50;;;;;;;;;;;18.80;1.00;;;;;;5110687;28;19922;-67
2023/05/09 10:30:34;;;;;;;;;;;20.10;1.00;;;;;;5112838;28;19921;-71
2023/05/09 10:33:10;;;;;;;;;;;20.30;1.00;;;;;;5111968;28;19914;-68
2023/05/09 10:35:47;;;;;;;;;;;20.90;1.00;;;;;;5099407;28;19945;-73
2023/05/09 10:38:23;;;;;;;;;;;21.50;1.00;;;;;;5091565;28;19922;-67
2023/05/09 10:40:56;;;;;;;;;;;22.10;1.00;;;;;;5100183;29;20235;-72
2023/05/09 10:43:27;;;;;;;;;;;22.00;1.00;;;;;;5099087;28;19925;-70
2023/05/09 10:46:01;;;;;;;;;;;22.00;1.00;;;;;;5142138;28;19926;-71
2023/05/09 10:48:33;;;;;;;;;;;22.70;1.00;;;;;;5088059;28;19949;-72
2023/05/09 10:51:04;;;;;;;;;;;22.50;1.00;;;;;;5129151;28;19918;-70
2023/05/09 10:53:41;;;;;;;;;;;21.90;1.00;;;;;;5108927;28;19914;-70
2023/05/09 10:56:28;;;;;;;;;;;21.80;1.00;;;;;;5117569;28;20329;-70
2023/05/09 10:59:00;;;;;;;;;;;22.70;1.00;;;;;;5127042;28;19922;-70
2023/05/09 11:01:35;;;;;;;;;;;22.50;1.00;;;;;;5092242;29;19925;-70
2023/05/09 11:04:18;;;;;;;;;;;23.10;1.00;;;;;;5111905;28;19940;-71
2023/05/09 11:06:53;;;;;;;;;;;23.70;1.00;;;;;;5093715;29;20221;-65
2023/05/09 11:09:33;;;;;;;;;;;24.50;1.00;;;;;;5114996;29;19925;-66
2023/05/09 11:12:04;;;;;;;;;;;24.30;1.00;;;;;;5130502;29;20123;-64
2023/05/09 11:14:50;;;;;;;;;;;23.30;1.00;;;;;;5132603;29;19914;-63
2023/05/09 11:17:21;;;;;;;;;;;23.60;1.00;;;;;;5129850;28;19914;-66
2023/05/09 11:20:02;;;;;;;;;;;22.80;1.00;;;;;;5155708;28;19924;-67
2023/05/09 11:22:40;;;;;;;;;;;23.30;1.00;;;;;;5135717;28;19940;-65
2023/05/09 11:25:12;;;;;;;;;;;24.40;1.00;;;;;;5139483;28;19916;-63
2023/05/09 11:27:44;;;;;;;;;;;24.00;1.00;;;;;;5123691;28;19910;-63
2023/05/09 11:30:17;;;;;;;;;;;23.10;1.00;;;;;;5137364;28;19914;-63
2023/05/09 11:32:54;;;;;;;;;;;22.80;1.00;;;;;;5143558;28;19914;-69
2023/05/09 11:35:32;;;;;;;;;;;23.60;1.00;;;;;;5115706;29;19916;-64
2023/05/09 11:38:05;;;;;;;;;;;22.80;1.00;;;;;;5100285;29;20119;-65
2023/05/09 11:40:38;;;;;;;;;;;23.40;1.00;;;;;;5131279;29;19914;-63
2023/05/09 11:43:12;;;;;;;;;;;23.30;1.00;;;;;;5137465;28;19916;-61
2023/05/09 11:45:45;;;;;;;;;;;23.50;1.00;;;;;;5153834;28;20211;-72
2023/05/09 11:48:21;;;;;;;;;;;24.60;1.00;;;;;;5102512;28;19922;-66
2023/05/09 11:50:54;;;;;;;;;;;23.60;1.00;;;;;;5101484;28;19922;-72
2023/05/09 11:53:28;;;;;;;;;;;21.70;1.00;;;;;;5098182;29;19926;-71
2023/05/09 11:56:03;;;;;;;;;;;22.80;1.00;;;;;;5118289;29;19910;-68
2023/05/09 11:58:42;;;;;;;;;;;24.40;1.00;;;;;;5135300;28;19924;-71
2023/05/09 12:01:14;;;;;;;;;;;24.00;1.00;;;;;;5121846;28;20268;-74
2023/05/09 12:03:48;;;;;;;;;;;24.50;1.00;;;;;;5105972;28;19921;-73
2023/05/09 12:06:20;;;;;;;;;;;24.00;1.00;;;;;;5139823;28;20037;-74
2023/05/09 12:08:56;;;;;;;;;;;24.00;1.00;;;;;;5101540;28;19922;-75
2023/05/09 12:11:31;;;;;;;;;;;24.70;1.00;;;;;;5133878;28;19922;-69
2023/05/09 12:14:05;;;;;;;;;;;24.50;1.00;;;;;;5145819;28;19909;-68
2023/05/09 12:16:44;;;;;;;;;;;24.00;1.00;;;;;;5127306;28;19926;-71
2023/05/09 12:19:21;;;;;;;;;;;22.80;1.00;;;;;;5119164;28;19916;-70
2023/05/09 12:21:57;;;;;;;;;;;22.90;1.00;;;;;;5112390;28;20463;-70
2023/05/09 12:24:34;;;;;;;;;;;22.40;1.00;;;;;;5110406;28;19918;-70
2023/05/09 12:27:06;;;;;;;;;;;22.00;1.00;;;;;;5111773;28;19928;-68
2023/05/09 12:29:44;;;;;;;;;;;21.70;1.00;;;;;;5129346;28;19920;-72
2023/05/09 12:32:19;;;;;;;;;;;20.20;1.00;;;;;;5091684;28;19922;-70
2023/05/09 12:34:53;;;;;;;;;;;19.60;1.00;;;;;;5110113;28;19921;-70
2023/05/09 12:37:33;;;;;;;;;;;19.50;1.00;;;;;;5129014;28;20336;-66
2023/05/09 12:40:14;;;;;;;;;;;19.10;1.00;;;;;;5137510;28;19922;-72
2023/05/09 12:42:45;;;;;;;;;;;20.80;1.00;;;;;;5149931;28;19918;-68
2023/05/09 12:45:16;;;;;;;;;;;22.50;1.00;;;;;;5124423;28;19996;-73
2023/05/09 12:47:52;;;;;;;;;;;21.60;1.00;;;;;;5134301;28;19918;-70
2023/05/09 12:50:33;;;;;;;;;;;21.80;1.00;;;;;;5100146;28;19922;-69
2023/05/09 12:53:07;;;;;;;;;;;22.20;1.00;;;;;;5127697;28;19924;-71
2023/05/09 12:55:42;;;;;;;;;;;21.30;1.00;;;;;;5142711;28;19921;-68
2023/05/09 12:58:14;;;;;;;;;;;21.10;1.00;;;;;;5140890;28;19918;-69
2023/05/09 13:00:50;;;;;;;;;;;22.70;1.00;;;;;;5160027;28;19933;-70
2023/05/09 13:03:29;;;;;;;;;;;22.80;1.00;;;;;;5112761;28;19980;-71
2023/05/09 13:06:00;;;;;;;;;;;21.20;1.00;;;;;;5134114;28;19925;-70
2023/05/09 13:08:32;;;;;;;;;;;22.10;1.00;;;;;;5142443;28;19921;-70
2023/05/09 13:11:06;;;;;;;;;;;21.80;1.00;;;;;;5128232;28;19968;-74
2023/05/09 13:13:41;;;;;;;;;;;20.90;1.00;;;;;;5121926;28;20391;-70
2023/05/09 13:16:12;;;;;;;;;;;20.80;1.00;;;;;;5105972;28;19922;-70
2023/05/09 13:18:43;;;;;;;;;;;20.20;1.00;;;;;;5140569;28;20248;-71
2023/05/09 13:21:15;;;;;;;;;;;19.40;1.00;;;;;;5144936;28;19921;-66
2023/05/09 13:23:48;;;;;;;;;;;20.50;1.00;;;;;;5139917;28;19909;-71
2023/05/09 13:26:22;;;;;;;;;;;21.10;1.00;;;;;;5181739;28;19924;-67
2023/05/09 13:28:54;;;;;;;;;;;21.90;1.00;;;;;;5160879;28;19938;-70
2023/05/09 13:31:27;;;;;;;;;;;22.30;1.00;;;;;;5124217;28;19921;-70
2023/05/09 13:34:04;;;;;;;;;;;22.30;1.00;;;;;;5128998;28;19927;-70
2023/05/09 13:36:37;;;;;;;;;;;21.20;1.00;;;;;;5133297;28;19921;-71
2023/05/09 13:39:09;;;;;;;;;;;21.80;1.00;;;;;;5153785;28;19914;-66
2023/05/09 13:41:40;;;;;;;;;;;22.70;1.00;;;;;;5139562;28;19924;-69
2023/05/09 13:44:17;;;;;;;;;;;24.10;1.00;;;;;;5160582;28;20415;-72
2023/05/09 13:46:51;;;;;;;;;;;23.20;1.00;;;;;;5140599;28;19910;-71
2023/05/09 13:49:28;;;;;;;;;;;21.80;1.00;;;;;;5116900;28;19924;-70
2023/05/09 13:52:05;;;;;;;;;;;21.10;1.00;;;;;;5142936;28;20209;-68
2023/05/09 13:54:36;;;;;;;;;;;20.10;1.00;;;;;;5130540;28;19927;-70
2023/05/09 13:57:08;;;;;;;;;;;19.60;1.00;;;;;;5141895;28;19921;-70
2023/05/09 13:59:44;;;;;;;;;;;20.50;1.00;;;;;;5126017;28;19916;-71
2023/05/09 14:02:15;;;;;;;;;;;20.90;1.00;;;;;;5141634;28;19913;-72
2023/05/09 14:04:49;;;;;;;;;;;21.30;1.00;;;;;;5133003;28;20387;-72
2023/05/09 14:07:20;;;;;;;;;;;20.30;1.00;;;;;;5128303;28;20168;-70
2023/05/09 14:09:52;;;;;;;;;;;19.50;1.00;;;;;;5130261;28;19921;-69
2023/05/09 14:12:27;;;;;;;;;;;20.30;1.00;;;;;;5181870;28;19922;-71
2023/05/09 14:15:03;;;;;;;;;;;21.00;1.00;;;;;;5143662;28;19922;-66
2023/05/09 14:17:38;;;;;;;;;;;20.50;1.00;;;;;;5109096;28;19910;-70
2023/05/09 14:20:14;;;;;;;;;;;19.70;1.00;;;;;;5137240;28;19922;-68
2023/05/09 14:22:45;;;;;;;;;;;19.70;1.00;;;;;;5101116;28;19977;-69
2023/05/09 14:25:16;;;;;;;;;;;20.60;1.00;;;;;;5153397;28;19918;-73
2023/05/09 14:27:53;;;;;;;;;;;21.40;1.00;;;;;;5132609;28;20235;-71
2023/05/09 14:30:27;;;;;;;;;;;21.40;1.00;;;;;;5125723;28;20251;-71
2023/05/09 14:33:04;;;;;;;;;;;20.50;1.00;;;;;;5117091;28;20027;-69
2023/05/09 14:35:35;;;;;;;;;;;19.20;1.00;;;;;;5112132;28;19922;-69
2023/05/09 14:38:08;;;;;;;;;;;19.00;1.00;;;;;;5093785;28;20214;-69
2023/05/09 14:40:44;;;;;;;;;;;18.80;1.00;;;;;;5159454;28;19928;-71
2023/05/09 14:43:21;;;;;;;;;;;18.60;1.00;;;;;;5102773;28;19922;-67
2023/05/09 14:45:55;;;;;;;;;;;18.50;1.00;;;;;;5118663;28;19925;-70
2023/05/09 14:48:27;;;;;;;;;;;18.40;1.00;;;;;;5115043;28;20357;-71
2023/05/09 14:51:00;;;;;;;;;;;18.90;1.00;;;;;;5124959;28;19918;-69
2023/05/09 14:53:34;;;;;;;;;;;19.20;1.00;;;;;;5105751;28;19926;-70
2023/05/09 14:56:09;;;;;;;;;;;19.80;1.00;;;;;;5101467;28;19933;-71
2023/05/09 14:58:42;;;;;;;;;;;20.00;1.00;;;;;;5115357;28;19925;-68
2023/05/09 15:01:14;;;;;;;;;;;21.30;1.00;;;;;;5106544;28;19925;-68
2023/05/09 15:03:46;;;;;;;;;;;21.60;1.00;;;;;;5126942;28;20017;-70
2023/05/09 15:06:20;;;;;;;;;;;22.10;1.00;;;;;;5119137;28;19922;-72
2023/05/09 15:08:51;;;;;;;;;;;22.20;1.00;;;;;;5107100;28;19914;-69
2023/05/09 15:11:23;;;;;;;;;;;22.70;1.00;;;;;;5113360;28;19928;-69
2023/05/09 15:13:54;;;;;;;;;;;21.70;1.00;;;;;;5156112;28;19917;-69
2023/05/09 15:16:26;;;;;;;;;;;20.40;1.00;;;;;;5137849;28;19926;-69
2023/05/09 15:18:58;;;;;;;;;;;19.40;1.00;;;;;;5126569;28;19921;-70